Obidos, Brazil
Current Conditions -  °F | °C
As of 11:00 AM on Friday 24 Oct 2014 (Local Time) from SBSN Reporting Station
Broken Clouds Broken Clouds  
Wind Chill: 84°   Ceiling: 10000
Heat Index: 94°   Visibility: 6mi
Dew Point: 77°   Wind: 9mph
Humidity: 79%   Direction: 90°E
Pressure: 29.88"   Gusts: NA
Location:  1.91°S, 55.52°W
Report Text: SBSN 241500Z 09008KT 9999 SCT020 BKN100 29/25 Q1012
Loading
Personal Weather Stations






























Interactive Weather Map
Tropical Storm Tracking
New forecast layout! Learn more

10-Day Weather Forecast

Advertisements
Track Severe Weather on mobile